Time;durP1;ratioP1;P1;durP2;ratioP2;P2;SDS_P1;SDS_P2;PMS_P1;PMS_P2;Temp;Humidity;BMP_temperature;BMP_pressure;BME280_temperature;BME280_humidity;BME280_pressure;Samples;Min_cycle;Max_cycle;Signal;HPM_P1;HPM_P2
2021/12/10 00:01:11;;;;;;;1.73;0.95;;;;;;;;;;6296761;22;20011;-43
2021/12/10 00:03:47;;;;;;;3.80;1.13;;;;;;;;;;6296301;22;20064;-46
2021/12/10 00:06:32;;;;;;;4.30;1.05;;;;;;;;;;6296762;22;20068;-45
2021/12/10 00:09:00;;;;;;;3.05;0.90;;;;;;;;;;6296810;22;20347;-44
2021/12/10 00:11:30;;;;;;;2.20;1.02;;;;;;;;;;6296106;22;20015;-45
2021/12/10 00:13:55;;;;;;;3.50;1.35;;;;;;;;;;6297654;22;20562;-43
2021/12/10 00:16:21;;;;;;;0.80;0.80;;;;;;;;;;6295913;22;20037;-44
2021/12/10 00:18:54;;;;;;;4.65;1.05;;;;;;;;;;6296495;22;20015;-46
2021/12/10 00:21:21;;;;;;;1.73;0.98;;;;;;;;;;6295278;22;20015;-45
2021/12/10 00:23:49;;;;;;;4.68;1.38;;;;;;;;;;6297252;22;20111;-44
2021/12/10 00:26:15;;;;;;;1.57;0.90;;;;;;;;;;6295644;22;20039;-45
2021/12/10 00:28:40;;;;;;;3.25;1.20;;;;;;;;;;6297792;22;20255;-45
2021/12/10 00:33:43;;;;;;;4.63;1.25;;;;;;;;;;6296270;22;20082;-46
2021/12/10 00:36:08;;;;;;;2.75;0.68;;;;;;;;;;6296888;22;20015;-44
2021/12/10 00:38:35;;;;;;;2.25;1.10;;;;;;;;;;6296177;22;20012;-44
2021/12/10 00:41:02;;;;;;;1.00;0.88;;;;;;;;;;6296414;22;20007;-43
2021/12/10 00:43:28;;;;;;;1.80;1.17;;;;;;;;;;6296905;22;20401;-46
2021/12/10 00:45:53;;;;;;;2.28;1.08;;;;;;;;;;6294649;22;20011;-44
2021/12/10 00:48:19;;;;;;;0.88;0.65;;;;;;;;;;6296383;22;20029;-45
2021/12/10 00:50:46;;;;;;;2.40;0.90;;;;;;;;;;6296777;22;20003;-43
2021/12/10 00:53:11;;;;;;;2.92;1.42;;;;;;;;;;6295853;22;20300;-45
2021/12/10 00:55:37;;;;;;;2.38;0.85;;;;;;;;;;6295742;22;20072;-45
2021/12/10 00:58:02;;;;;;;2.63;0.88;;;;;;;;;;6295556;22;20451;-45
2021/12/10 01:00:30;;;;;;;2.33;0.70;;;;;;;;;;6296141;22;20046;-44
2021/12/10 01:02:56;;;;;;;0.90;0.70;;;;;;;;;;6294443;22;20015;-43
2021/12/10 01:05:22;;;;;;;1.98;0.90;;;;;;;;;;6295206;22;20026;-44
2021/12/10 01:07:47;;;;;;;1.60;0.70;;;;;;;;;;6296109;22;20022;-43
2021/12/10 01:10:22;;;;;;;5.00;1.30;;;;;;;;;;6296075;22;20026;-44
2021/12/10 01:12:48;;;;;;;2.40;0.43;;;;;;;;;;6295482;22;20017;-46
2021/12/10 01:26:22;;;;;;;2.30;0.57;;;;;;;;;;6297474;22;20026;-44
2021/12/10 01:28:52;;;;;;;1.38;0.55;;;;;;;;;;6296983;22;20022;-44
2021/12/10 01:31:18;;;;;;;1.13;0.75;;;;;;;;;;6295333;22;20018;-44
2021/12/10 01:33:43;;;;;;;1.48;0.75;;;;;;;;;;6296796;22;20008;-43
2021/12/10 01:36:09;;;;;;;1.83;0.73;;;;;;;;;;6295321;22;20086;-44
2021/12/10 01:38:36;;;;;;;5.25;1.20;;;;;;;;;;6296046;22;20019;-46
2021/12/10 01:41:02;;;;;;;3.25;1.08;;;;;;;;;;6296309;22;20015;-44
2021/12/10 01:43:32;;;;;;;3.90;0.60;;;;;;;;;;6296153;22;20893;-44
2021/12/10 01:46:01;;;;;;;;;;;;;;;;;;6297508;22;20011;-44
2021/12/10 01:48:30;;;;;;;1.07;0.57;;;;;;;;;;6295701;22;19982;-44
2021/12/10 01:50:56;;;;;;;0.75;0.50;;;;;;;;;;6296117;22;20011;-44
2021/12/10 01:53:23;;;;;;;1.40;0.90;;;;;;;;;;6295262;22;20031;-45
2021/12/10 01:55:49;;;;;;;3.72;0.90;;;;;;;;;;6295244;22;20007;-44
2021/12/10 01:58:18;;;;;;;2.42;1.05;;;;;;;;;;6296129;22;20016;-44
2021/12/10 02:00:46;;;;;;;1.05;0.63;;;;;;;;;;6296275;22;20011;-44
2021/12/10 02:03:11;;;;;;;1.55;0.68;;;;;;;;;;6295069;22;20019;-43
2021/12/10 02:05:36;;;;;;;1.58;0.88;;;;;;;;;;6295972;22;20560;-43
2021/12/10 02:08:02;;;;;;;1.90;0.70;;;;;;;;;;6294902;22;20023;-45
2021/12/10 02:10:28;;;;;;;1.73;0.82;;;;;;;;;;6295090;22;20012;-44
2021/12/10 02:12:54;;;;;;;4.05;1.02;;;;;;;;;;6295379;22;20011;-47
2021/12/10 02:15:21;;;;;;;2.20;1.17;;;;;;;;;;6295782;22;20019;-44
2021/12/10 02:17:49;;;;;;;3.92;1.10;;;;;;;;;;6295021;22;20007;-43
2021/12/10 02:20:17;;;;;;;2.35;1.05;;;;;;;;;;6295121;22;20026;-44
2021/12/10 02:22:44;;;;;;;4.15;1.27;;;;;;;;;;6295165;22;20216;-44
2021/12/10 02:25:10;;;;;;;5.80;1.65;;;;;;;;;;6296962;22;20090;-44
2021/12/10 02:27:35;;;;;;;1.70;0.45;;;;;;;;;;6294874;22;20035;-45
2021/12/10 02:30:00;;;;;;;4.85;1.00;;;;;;;;;;6295360;22;20015;-43
2021/12/10 02:32:27;;;;;;;1.67;0.73;;;;;;;;;;6294980;22;20015;-43
2021/12/10 02:34:53;;;;;;;3.38;0.93;;;;;;;;;;6291607;22;20042;-44
2021/12/10 02:37:19;;;;;;;1.42;0.70;;;;;;;;;;6293555;22;20034;-43
2021/12/10 02:39:44;;;;;;;1.67;0.70;;;;;;;;;;6295215;22;20020;-43
2021/12/10 02:42:09;;;;;;;2.95;1.27;;;;;;;;;;6295714;22;20011;-44
2021/12/10 02:44:35;;;;;;;2.25;1.02;;;;;;;;;;6295776;22;20011;-44
2021/12/10 02:47:00;;;;;;;1.30;0.93;;;;;;;;;;6295727;22;20035;-44
2021/12/10 02:49:26;;;;;;;3.50;0.77;;;;;;;;;;6291292;22;20467;-44
2021/12/10 02:51:52;;;;;;;2.63;0.82;;;;;;;;;;6295722;22;20015;-44
2021/12/10 02:54:22;;;;;;;3.03;1.00;;;;;;;;;;6293484;22;20506;-43
2021/12/10 02:56:49;;;;;;;4.07;0.85;;;;;;;;;;6294854;22;20011;-44
2021/12/10 02:59:14;;;;;;;5.25;1.55;;;;;;;;;;6295788;22;20282;-43
2021/12/10 03:01:41;;;;;;;4.28;1.48;;;;;;;;;;6295805;22;20011;-45
2021/12/10 03:04:09;;;;;;;4.53;1.15;;;;;;;;;;6296047;22;20038;-45
2021/12/10 03:06:37;;;;;;;2.55;1.00;;;;;;;;;;6292989;22;20431;-46
2021/12/10 03:09:03;;;;;;;2.72;1.67;;;;;;;;;;6294840;22;20008;-43
2021/12/10 03:11:31;;;;;;;2.85;1.15;;;;;;;;;;6295870;22;20007;-46
2021/12/10 03:13:57;;;;;;;3.00;0.93;;;;;;;;;;6295698;22;20324;-45
2021/12/10 03:16:22;;;;;;;3.38;1.35;;;;;;;;;;6295634;22;20027;-43
2021/12/10 03:18:49;;;;;;;3.92;1.23;;;;;;;;;;6295999;22;20347;-43
2021/12/10 03:21:14;;;;;;;2.80;1.00;;;;;;;;;;6294809;22;20012;-42
2021/12/10 03:23:42;;;;;;;5.20;0.75;;;;;;;;;;6296215;22;20027;-44
2021/12/10 03:26:11;;;;;;;1.23;0.60;;;;;;;;;;6294897;22;20015;-45
2021/12/10 03:28:40;;;;;;;3.90;1.20;;;;;;;;;;6295906;22;20003;-43
2021/12/10 03:31:06;;;;;;;1.17;0.90;;;;;;;;;;6296664;22;20033;-44
2021/12/10 03:33:31;;;;;;;5.57;1.45;;;;;;;;;;6297679;22;26230;-44
2021/12/10 03:35:56;;;;;;;1.77;1.15;;;;;;;;;;6297508;22;20014;-44
2021/12/10 03:38:23;;;;;;;1.85;1.25;;;;;;;;;;6297861;22;20027;-44
2021/12/10 03:40:48;;;;;;;2.17;1.00;;;;;;;;;;6296069;22;20011;-44
2021/12/10 03:43:14;;;;;;;3.38;1.65;;;;;;;;;;6298220;22;20030;-44
2021/12/10 03:45:40;;;;;;;1.58;0.60;;;;;;;;;;6298217;22;20881;-43
2021/12/10 03:48:08;;;;;;;1.40;1.05;;;;;;;;;;6297188;22;20076;-44
2021/12/10 03:50:34;;;;;;;3.67;0.90;;;;;;;;;;6296311;22;20030;-43
2021/12/10 03:52:59;;;;;;;7.55;1.33;;;;;;;;;;6297970;22;20100;-44
2021/12/10 03:55:24;;;;;;;12.20;1.25;;;;;;;;;;6294006;22;20727;-44
2021/12/10 03:57:52;;;;;;;2.55;1.17;;;;;;;;;;6296648;22;20013;-44
2021/12/10 04:00:19;;;;;;;2.85;1.25;;;;;;;;;;6296597;22;20003;-44
2021/12/10 04:02:44;;;;;;;2.22;1.00;;;;;;;;;;6297754;22;20133;-44
2021/12/10 04:05:09;;;;;;;5.07;1.23;;;;;;;;;;6297534;22;20125;-44
2021/12/10 04:07:35;;;;;;;2.00;0.88;;;;;;;;;;6295151;22;20011;-44
2021/12/10 04:10:00;;;;;;;2.33;0.93;;;;;;;;;;6297749;22;20007;-44
2021/12/10 04:12:26;;;;;;;1.25;0.88;;;;;;;;;;6296745;22;20007;-45
2021/12/10 04:14:51;;;;;;;2.72;0.90;;;;;;;;;;6297074;22;20086;-45
2021/12/10 04:17:19;;;;;;;3.45;1.60;;;;;;;;;;6295916;22;20025;-43
2021/12/10 04:19:45;;;;;;;2.92;0.80;;;;;;;;;;6297932;22;20034;-43
2021/12/10 04:22:13;;;;;;;3.35;1.30;;;;;;;;;;6296642;22;20007;-44
2021/12/10 04:24:40;;;;;;;4.63;2.10;;;;;;;;;;6297170;22;20376;-44
2021/12/10 04:27:07;;;;;;;3.03;1.05;;;;;;;;;;6296485;22;20038;-43
2021/12/10 04:29:32;;;;;;;2.55;1.48;;;;;;;;;;6296526;22;20007;-44
2021/12/10 04:31:58;;;;;;;4.15;1.23;;;;;;;;;;6296875;22;20356;-44
2021/12/10 04:34:24;;;;;;;1.88;1.10;;;;;;;;;;6296484;22;20011;-43
2021/12/10 04:36:51;;;;;;;5.13;0.95;;;;;;;;;;6293802;22;20015;-43
2021/12/10 04:39:17;;;;;;;1.67;1.30;;;;;;;;;;6295701;22;20025;-44
2021/12/10 04:41:42;;;;;;;3.08;1.15;;;;;;;;;;6297123;22;20054;-47
2021/12/10 04:44:07;;;;;;;3.13;1.25;;;;;;;;;;6296446;22;20011;-44
2021/12/10 04:46:33;;;;;;;5.03;1.00;;;;;;;;;;6296978;22;20042;-44
2021/12/10 04:49:00;;;;;;;2.58;1.13;;;;;;;;;;6296157;22;20089;-43
2021/12/10 04:51:26;;;;;;;2.08;0.75;;;;;;;;;;6295837;22;20105;-45
2021/12/10 04:53:52;;;;;;;2.13;0.90;;;;;;;;;;6296145;22;20031;-43
2021/12/10 04:56:18;;;;;;;1.52;0.88;;;;;;;;;;6296163;22;20807;-44
2021/12/10 04:58:43;;;;;;;2.15;1.40;;;;;;;;;;6296820;22;20042;-44
2021/12/10 05:01:08;;;;;;;3.13;1.08;;;;;;;;;;6296461;22;20339;-44
2021/12/10 05:03:34;;;;;;;1.65;1.02;;;;;;;;;;6296902;22;20026;-43
2021/12/10 05:06:03;;;;;;;3.33;0.85;;;;;;;;;;6296068;22;20084;-44
2021/12/10 05:08:29;;;;;;;4.13;1.30;;;;;;;;;;6294698;22;20509;-44
2021/12/10 05:10:54;;;;;;;3.25;1.20;;;;;;;;;;6297319;22;20019;-44
2021/12/10 05:13:20;;;;;;;1.42;1.00;;;;;;;;;;6295686;22;20061;-45
2021/12/10 05:15:53;;;;;;;2.60;0.88;;;;;;;;;;6296883;22;20015;-44
2021/12/10 05:18:18;;;;;;;3.15;1.30;;;;;;;;;;6294411;22;20056;-43
2021/12/10 05:20:48;;;;;;;1.83;0.90;;;;;;;;;;6297582;22;20003;-44
2021/12/10 05:23:14;;;;;;;;;;;;;;;;;;6295422;22;20019;-43
2021/12/10 05:25:39;;;;;;;2.78;0.80;;;;;;;;;;6294436;22;19929;-43
2021/12/10 05:28:05;;;;;;;6.00;1.80;;;;;;;;;;6296187;22;20878;-44
2021/12/10 05:30:31;;;;;;;4.35;1.13;;;;;;;;;;6296193;22;20015;-44
2021/12/10 05:32:57;;;;;;;2.70;1.00;;;;;;;;;;6295793;22;20065;-45
2021/12/10 05:35:23;;;;;;;3.08;1.08;;;;;;;;;;6296616;22;20027;-46
2021/12/10 05:37:48;;;;;;;3.25;1.02;;;;;;;;;;6296838;22;20026;-44
2021/12/10 05:40:14;;;;;;;3.08;1.10;;;;;;;;;;6295381;22;20019;-43
2021/12/10 05:42:40;;;;;;;3.75;1.20;;;;;;;;;;6297178;22;20070;-44
2021/12/10 05:45:06;;;;;;;7.18;1.48;;;;;;;;;;6295782;22;20480;-44
2021/12/10 05:47:31;;;;;;;1.95;1.15;;;;;;;;;;6295038;22;20446;-44
2021/12/10 05:49:57;;;;;;;3.88;0.65;;;;;;;;;;6296211;22;20715;-44
2021/12/10 05:52:22;;;;;;;2.28;1.20;;;;;;;;;;6294563;22;20007;-43
2021/12/10 05:54:47;;;;;;;2.65;1.63;;;;;;;;;;6295417;22;20031;-45
2021/12/10 05:57:12;;;;;;;6.28;1.48;;;;;;;;;;6296036;22;20391;-44
2021/12/10 05:59:38;;;;;;;3.65;1.98;;;;;;;;;;6296007;22;20082;-44
2021/12/10 06:02:04;;;;;;;2.40;1.10;;;;;;;;;;6297078;22;20015;-46
2021/12/10 06:04:30;;;;;;;5.63;1.30;;;;;;;;;;6295485;22;20015;-46
2021/12/10 06:06:56;;;;;;;8.43;2.08;;;;;;;;;;6294593;22;20503;-44
2021/12/10 06:09:21;;;;;;;2.85;1.10;;;;;;;;;;6296368;22;20324;-45
2021/12/10 06:11:46;;;;;;;3.08;1.48;;;;;;;;;;6296248;22;20157;-44
2021/12/10 06:14:11;;;;;;;2.83;1.00;;;;;;;;;;6296347;22;20027;-44
2021/12/10 06:16:37;;;;;;;1.75;0.80;;;;;;;;;;6295291;22;20420;-44
2021/12/10 06:19:04;;;;;;;2.95;1.27;;;;;;;;;;6296107;22;20058;-44
2021/12/10 06:21:29;;;;;;;5.00;1.40;;;;;;;;;;6295183;22;20018;-46
2021/12/10 06:23:55;;;;;;;3.97;0.85;;;;;;;;;;6295142;22;20036;-44
2021/12/10 06:26:20;;;;;;;5.07;1.05;;;;;;;;;;6295481;22;20390;-45
2021/12/10 06:28:46;;;;;;;5.28;1.20;;;;;;;;;;6295485;22;20023;-44
2021/12/10 06:31:14;;;;;;;3.15;0.90;;;;;;;;;;6296869;22;20012;-44
2021/12/10 06:33:39;;;;;;;3.38;1.02;;;;;;;;;;6294587;22;20042;-44
2021/12/10 06:36:05;;;;;;;0.73;0.60;;;;;;;;;;6296652;22;20011;-44
2021/12/10 06:38:31;;;;;;;3.03;0.85;;;;;;;;;;6295190;22;20023;-44
2021/12/10 06:40:56;;;;;;;3.78;1.02;;;;;;;;;;6296677;22;20106;-44
2021/12/10 06:43:22;;;;;;;4.43;1.88;;;;;;;;;;6294404;22;20019;-44
2021/12/10 06:45:49;;;;;;;3.33;0.63;;;;;;;;;;6295196;22;20011;-44
2021/12/10 06:48:15;;;;;;;4.22;1.15;;;;;;;;;;6293937;22;20038;-44
2021/12/10 06:50:51;;;;;;;4.53;1.35;;;;;;;;;;6295569;22;20003;-46
2021/12/10 06:53:19;;;;;;;3.08;0.73;;;;;;;;;;6294629;22;20099;-44
2021/12/10 06:55:44;;;;;;;2.25;1.23;;;;;;;;;;6296005;22;20018;-44
2021/12/10 06:58:09;;;;;;;3.35;1.00;;;;;;;;;;6295785;22;20448;-44
2021/12/10 07:00:36;;;;;;;2.88;1.25;;;;;;;;;;6295162;22;20014;-44
2021/12/10 07:03:02;;;;;;;1.73;0.77;;;;;;;;;;6295957;22;20049;-44
2021/12/10 07:05:27;;;;;;;2.20;0.70;;;;;;;;;;6295553;22;20011;-44
2021/12/10 07:07:52;;;;;;;3.85;1.40;;;;;;;;;;6296288;22;20953;-43
2021/12/10 07:10:18;;;;;;;2.25;1.20;;;;;;;;;;6293762;22;20011;-45
2021/12/10 07:12:44;;;;;;;0.90;0.70;;;;;;;;;;6295363;22;20011;-44
2021/12/10 07:15:12;;;;;;;2.80;1.30;;;;;;;;;;6294071;22;20011;-45
2021/12/10 07:17:40;;;;;;;4.72;2.50;;;;;;;;;;6294783;22;20342;-44
2021/12/10 07:20:06;;;;;;;7.30;1.30;;;;;;;;;;6294678;22;20398;-43
2021/12/10 07:22:32;;;;;;;9.27;1.63;;;;;;;;;;6295432;22;20026;-43
2021/12/10 07:24:57;;;;;;;3.78;1.20;;;;;;;;;;6294310;22;20008;-44
2021/12/10 07:27:22;;;;;;;3.63;1.02;;;;;;;;;;6292797;22;20065;-44
2021/12/10 07:29:48;;;;;;;2.20;1.23;;;;;;;;;;6295269;22;20014;-44
2021/12/10 07:32:13;;;;;;;4.90;1.17;;;;;;;;;;6294548;22;20149;-42
2021/12/10 07:34:40;;;;;;;5.15;1.92;;;;;;;;;;6295692;22;20086;-44
2021/12/10 07:37:07;;;;;;;6.97;1.67;;;;;;;;;;6294110;22;20053;-44
2021/12/10 07:39:33;;;;;;;4.30;1.40;;;;;;;;;;6294909;22;20346;-45
2021/12/10 07:42:00;;;;;;;3.47;0.95;;;;;;;;;;6294152;22;20526;-45
2021/12/10 07:44:25;;;;;;;5.03;1.27;;;;;;;;;;6298406;22;20004;-44
2021/12/10 07:46:51;;;;;;;5.57;1.40;;;;;;;;;;6296821;22;20109;-44
2021/12/10 07:49:23;;;;;;;3.25;1.05;;;;;;;;;;6297613;22;20414;-44
2021/12/10 07:51:50;;;;;;;5.80;1.75;;;;;;;;;;6296132;22;20012;-43
2021/12/10 07:54:15;;;;;;;6.65;1.70;;;;;;;;;;6296110;22;20019;-46
2021/12/10 07:56:40;;;;;;;1.83;1.70;;;;;;;;;;6296781;22;20015;-44
2021/12/10 07:59:06;;;;;;;3.90;1.17;;;;;;;;;;6297926;22;20760;-46
2021/12/10 08:01:31;;;;;;;4.25;1.20;;;;;;;;;;6296744;22;20015;-46
2021/12/10 08:03:58;;;;;;;6.93;1.73;;;;;;;;;;6296354;22;20451;-45
2021/12/10 08:06:25;;;;;;;4.68;1.23;;;;;;;;;;6296686;22;20011;-44
2021/12/10 08:08:50;;;;;;;2.15;1.10;;;;;;;;;;6298199;22;20394;-43
2021/12/10 08:11:16;;;;;;;4.70;1.13;;;;;;;;;;6296200;22;20065;-45
2021/12/10 08:13:41;;;;;;;8.50;1.05;;;;;;;;;;6296225;22;20011;-45
2021/12/10 08:16:06;;;;;;;1.75;1.38;;;;;;;;;;6295355;22;20420;-43
2021/12/10 08:18:32;;;;;;;12.23;1.90;;;;;;;;;;6296388;22;20011;-44
2021/12/10 08:20:58;;;;;;;1.95;1.02;;;;;;;;;;6296805;22;20011;-44
2021/12/10 08:23:23;;;;;;;2.40;0.90;;;;;;;;;;6296242;22;20015;-43
2021/12/10 08:25:48;;;;;;;3.20;1.35;;;;;;;;;;6294673;22;20086;-44
2021/12/10 08:28:14;;;;;;;3.35;1.23;;;;;;;;;;6296281;22;20141;-44
2021/12/10 08:30:40;;;;;;;3.63;1.13;;;;;;;;;;6296030;22;20432;-45
2021/12/10 08:33:11;;;;;;;4.50;1.05;;;;;;;;;;6296440;22;20097;-44
2021/12/10 08:35:37;;;;;;;4.03;1.23;;;;;;;;;;6294593;22;20007;-46
2021/12/10 08:38:02;;;;;;;2.00;1.17;;;;;;;;;;6297745;22;20087;-45
2021/12/10 08:40:30;;;;;;;7.15;1.23;;;;;;;;;;6295780;22;20339;-43
2021/12/10 08:42:55;;;;;;;2.08;0.80;;;;;;;;;;6297213;22;20015;-43
2021/12/10 08:45:21;;;;;;;1.63;0.85;;;;;;;;;;6297735;22;20015;-44
2021/12/10 08:47:48;;;;;;;0.65;0.57;;;;;;;;;;6296698;22;20019;-44
2021/12/10 08:50:16;;;;;;;3.90;1.13;;;;;;;;;;6295304;22;20011;-43
2021/12/10 08:52:42;;;;;;;2.92;1.00;;;;;;;;;;6296921;22;20034;-43
2021/12/10 08:55:08;;;;;;;4.97;1.10;;;;;;;;;;6295931;22;20011;-43
2021/12/10 08:57:33;;;;;;;2.30;0.60;;;;;;;;;;6297090;22;20004;-43
2021/12/10 08:59:58;;;;;;;1.63;1.08;;;;;;;;;;6296313;22;20023;-43
2021/12/10 09:02:24;;;;;;;2.78;0.80;;;;;;;;;;6296822;22;20015;-43
2021/12/10 09:04:49;;;;;;;4.10;1.00;;;;;;;;;;6296831;22;20481;-43
2021/12/10 09:07:15;;;;;;;0.98;0.60;;;;;;;;;;6296461;22;20501;-45
2021/12/10 09:09:42;;;;;;;1.20;0.50;;;;;;;;;;6290639;22;20007;-42
2021/12/10 09:12:13;;;;;;;1.42;0.90;;;;;;;;;;6289128;22;20014;-44
2021/12/10 09:14:43;;;;;;;1.38;0.80;;;;;;;;;;6287039;22;20011;-44
2021/12/10 09:17:09;;;;;;;1.80;0.80;;;;;;;;;;6287050;22;20076;-42
2021/12/10 09:19:35;;;;;;;1.15;0.80;;;;;;;;;;6286411;22;20084;-43
2021/12/10 09:22:01;;;;;;;1.77;0.73;;;;;;;;;;6287230;22;20451;-43
2021/12/10 09:24:26;;;;;;;1.27;0.75;;;;;;;;;;6287636;22;20063;-43
2021/12/10 09:26:56;;;;;;;3.97;1.10;;;;;;;;;;6285680;22;20094;-44
2021/12/10 09:29:23;;;;;;;2.33;1.20;;;;;;;;;;6287358;22;20015;-45
2021/12/10 09:31:49;;;;;;;2.70;0.88;;;;;;;;;;6285860;22;20308;-44
2021/12/10 09:34:14;;;;;;;3.60;0.98;;;;;;;;;;6287730;22;20026;-43
2021/12/10 09:36:41;;;;;;;5.75;0.60;;;;;;;;;;6287359;22;20379;-43
2021/12/10 09:39:08;;;;;;;1.65;0.93;;;;;;;;;;6286152;22;20019;-43
2021/12/10 09:41:33;;;;;;;2.03;0.90;;;;;;;;;;6287072;22;20004;-44
2021/12/10 09:43:58;;;;;;;0.75;0.63;;;;;;;;;;6287791;22;20065;-43
2021/12/10 09:46:23;;;;;;;1.48;0.98;;;;;;;;;;6286929;22;20459;-44
2021/12/10 09:48:49;;;;;;;4.35;1.23;;;;;;;;;;6290227;22;20015;-43
2021/12/10 09:51:16;;;;;;;3.08;0.93;;;;;;;;;;6287653;22;20362;-43
2021/12/10 09:53:43;;;;;;;2.72;1.00;;;;;;;;;;6289803;22;20115;-43
2021/12/10 09:56:09;;;;;;;2.88;0.93;;;;;;;;;;6290023;22;20389;-44
2021/12/10 09:58:34;;;;;;;1.48;1.13;;;;;;;;;;6288989;22;20037;-45
2021/12/10 10:01:08;;;;;;;1.83;1.00;;;;;;;;;;6289282;22;20016;-43
2021/12/10 10:03:35;;;;;;;1.67;0.98;;;;;;;;;;6289289;22;20038;-44
2021/12/10 10:06:00;;;;;;;1.27;0.90;;;;;;;;;;6288807;22;20128;-43
2021/12/10 10:08:26;;;;;;;1.48;1.10;;;;;;;;;;6288552;22;20603;-44
2021/12/10 10:10:55;;;;;;;1.90;0.90;;;;;;;;;;6287954;22;20545;-45
2021/12/10 10:13:21;;;;;;;1.60;0.85;;;;;;;;;;6288969;22;20011;-44
2021/12/10 10:15:47;;;;;;;2.60;0.88;;;;;;;;;;6288504;22;20011;-43
2021/12/10 10:18:13;;;;;;;1.67;0.77;;;;;;;;;;6289388;22;20003;-42
2021/12/10 10:20:40;;;;;;;4.38;1.13;;;;;;;;;;6289724;22;20061;-45
2021/12/10 10:23:08;;;;;;;2.72;0.70;;;;;;;;;;6288018;22;20099;-43
2021/12/10 10:25:36;;;;;;;3.33;1.20;;;;;;;;;;6289513;22;20011;-45
2021/12/10 10:28:03;;;;;;;2.85;1.00;;;;;;;;;;6289403;22;20762;-44
2021/12/10 10:30:32;;;;;;;5.18;1.02;;;;;;;;;;6287748;22;20037;-43
2021/12/10 10:32:59;;;;;;;4.88;1.83;;;;;;;;;;6289433;22;19999;-44
2021/12/10 10:35:27;;;;;;;4.68;0.82;;;;;;;;;;6287718;22;20495;-43
2021/12/10 10:37:53;;;;;;;2.63;0.90;;;;;;;;;;6289095;22;20754;-47
2021/12/10 10:40:21;;;;;;;4.13;0.80;;;;;;;;;;6287968;22;20030;-44
2021/12/10 10:42:47;;;;;;;2.92;1.10;;;;;;;;;;6288481;22;20039;-43
2021/12/10 10:45:17;;;;;;;1.40;1.05;;;;;;;;;;6290039;22;20660;-42
2021/12/10 10:47:42;;;;;;;;;;;;;;;;;;6288386;22;20011;-43
2021/12/10 10:50:28;;;;;;;2.20;1.05;;;;;;;;;;6288704;22;19903;-45
2021/12/10 10:52:55;;;;;;;1.92;0.75;;;;;;;;;;6286601;22;20610;-43
2021/12/10 10:55:20;;;;;;;1.10;0.68;;;;;;;;;;6289231;22;20016;-43
2021/12/10 10:57:55;;;;;;;1.50;0.68;;;;;;;;;;6289676;22;20015;-44
2021/12/10 11:00:37;;;;;;;1.80;0.75;;;;;;;;;;6287297;22;20049;-43
2021/12/10 11:03:04;;;;;;;0.93;0.50;;;;;;;;;;6288063;22;20019;-43
2021/12/10 11:05:30;;;;;;;2.78;0.95;;;;;;;;;;6288513;22;20033;-44
2021/12/10 11:07:58;;;;;;;2.92;0.93;;;;;;;;;;6289818;22;20085;-43
2021/12/10 11:10:26;;;;;;;4.60;1.10;;;;;;;;;;6287540;22;20060;-43
2021/12/10 11:12:51;;;;;;;3.60;0.80;;;;;;;;;;6289241;22;20011;-44
2021/12/10 11:15:17;;;;;;;6.95;1.42;;;;;;;;;;6287452;22;20015;-43
2021/12/10 11:17:47;;;;;;;0.98;0.70;;;;;;;;;;6288346;22;20008;-43
2021/12/10 11:20:16;;;;;;;3.33;1.00;;;;;;;;;;6287764;22;20023;-45
2021/12/10 11:22:46;;;;;;;3.67;1.00;;;;;;;;;;6288579;22;19999;-43
2021/12/10 11:25:14;;;;;;;1.85;0.98;;;;;;;;;;6287362;22;20576;-43
2021/12/10 11:27:40;;;;;;;1.05;0.60;;;;;;;;;;6288950;22;20082;-43
2021/12/10 11:30:11;;;;;;;7.50;1.05;;;;;;;;;;6288739;22;20082;-44
2021/12/10 11:32:38;;;;;;;4.22;1.00;;;;;;;;;;6288519;22;20447;-43
2021/12/10 11:35:16;;;;;;;1.95;0.90;;;;;;;;;;6288178;22;20546;-43
2021/12/10 11:37:41;;;;;;;4.22;1.00;;;;;;;;;;6288988;22;20011;-43
2021/12/10 11:40:09;;;;;;;1.58;0.80;;;;;;;;;;6282462;22;20616;-44
2021/12/10 11:42:46;;;;;;;0.88;0.70;;;;;;;;;;6288226;22;20011;-44
2021/12/10 11:45:31;;;;;;;1.60;1.02;;;;;;;;;;6287720;22;20017;-43
2021/12/10 11:48:06;;;;;;;2.08;1.00;;;;;;;;;;6287478;22;20011;-44
2021/12/10 11:50:32;;;;;;;2.67;1.05;;;;;;;;;;6287004;22;20039;-45
2021/12/10 11:52:59;;;;;;;1.45;0.65;;;;;;;;;;6290322;22;20062;-44
2021/12/10 11:55:24;;;;;;;2.47;0.55;;;;;;;;;;6287946;22;20011;-44
2021/12/10 11:57:50;;;;;;;2.53;0.80;;;;;;;;;;6291473;22;20011;-44
2021/12/10 12:00:44;;;;;;;3.53;0.63;;;;;;;;;;6289743;22;20883;-44
2021/12/10 12:03:10;;;;;;;0.57;0.35;;;;;;;;;;6288569;22;20012;-45
2021/12/10 12:05:37;;;;;;;3.45;0.52;;;;;;;;;;6289780;22;20723;-44
2021/12/10 12:08:05;;;;;;;1.38;0.95;;;;;;;;;;6289966;22;20069;-43
2021/12/10 12:10:38;;;;;;;2.58;0.77;;;;;;;;;;6288149;22;20019;-43
2021/12/10 12:13:20;;;;;;;0.77;0.57;;;;;;;;;;6291315;22;20007;-44
2021/12/10 12:15:47;;;;;;;3.50;0.70;;;;;;;;;;6289958;22;20042;-43
2021/12/10 12:18:22;;;;;;;2.10;0.75;;;;;;;;;;6290325;22;20018;-44
2021/12/10 12:20:47;;;;;;;1.63;0.57;;;;;;;;;;6289018;22;20034;-45
2021/12/10 12:26:03;;;;;;;2.13;0.50;;;;;;;;;;6289279;22;20466;-43
2021/12/10 12:28:29;;;;;;;1.08;0.77;;;;;;;;;;6289238;22;20018;-43
2021/12/10 12:30:54;;;;;;;1.52;0.70;;;;;;;;;;6289595;22;20015;-44
2021/12/10 12:33:20;;;;;;;3.58;0.90;;;;;;;;;;6289481;22;20019;-44
2021/12/10 12:35:45;;;;;;;4.28;0.80;;;;;;;;;;6290988;22;20011;-43
2021/12/10 12:38:16;;;;;;;1.85;0.50;;;;;;;;;;6288242;22;20519;-45
2021/12/10 12:40:43;;;;;;;1.80;1.08;;;;;;;;;;6286463;22;20008;-43
2021/12/10 12:43:09;;;;;;;7.10;1.13;;;;;;;;;;6291594;22;20003;-43
2021/12/10 12:45:35;;;;;;;2.13;0.60;;;;;;;;;;6289140;22;20391;-43
2021/12/10 12:48:03;;;;;;;2.08;0.98;;;;;;;;;;6290259;22;20499;-43
2021/12/10 12:50:30;;;;;;;2.40;0.73;;;;;;;;;;6289403;22;20011;-43
2021/12/10 12:52:55;;;;;;;1.63;0.70;;;;;;;;;;6289620;22;20035;-43
2021/12/10 12:55:20;;;;;;;1.37;0.80;;;;;;;;;;6289936;22;20019;-43
2021/12/10 12:57:51;;;;;;;2.47;0.80;;;;;;;;;;6290001;22;20228;-44
2021/12/10 13:00:19;;;;;;;1.25;0.65;;;;;;;;;;6288088;22;20515;-43
2021/12/10 13:02:47;;;;;;;3.83;0.75;;;;;;;;;;6290589;22;20015;-44
2021/12/10 13:05:13;;;;;;;2.67;0.80;;;;;;;;;;6288634;22;20072;-43
2021/12/10 13:07:38;;;;;;;1.33;0.65;;;;;;;;;;6288256;22;20090;-43
2021/12/10 13:10:05;;;;;;;2.70;1.08;;;;;;;;;;6290202;22;20023;-43
2021/12/10 13:12:55;;;;;;;2.88;1.15;;;;;;;;;;6288830;22;20021;-44
2021/12/10 13:15:25;;;;;;;1.85;0.73;;;;;;;;;;6289335;22;20644;-43
2021/12/10 13:17:54;;;;;;;4.97;0.70;;;;;;;;;;6290293;22;20038;-44
2021/12/10 13:20:22;;;;;;;2.05;0.70;;;;;;;;;;6286903;22;20068;-44
2021/12/10 13:22:48;;;;;;;2.53;0.50;;;;;;;;;;6291060;22;20073;-43
2021/12/10 13:25:16;;;;;;;5.78;1.45;;;;;;;;;;6287046;22;20260;-42
2021/12/10 13:27:41;;;;;;;3.80;1.08;;;;;;;;;;6289197;22;20390;-45
2021/12/10 13:30:07;;;;;;;2.50;0.75;;;;;;;;;;6289630;22;20014;-44
2021/12/10 13:32:33;;;;;;;1.52;0.68;;;;;;;;;;6289566;22;20034;-45
2021/12/10 13:34:58;;;;;;;1.20;0.90;;;;;;;;;;6289817;22;20344;-43
2021/12/10 13:37:23;;;;;;;5.55;1.20;;;;;;;;;;6289426;22;20133;-43
2021/12/10 13:39:53;;;;;;;2.10;0.70;;;;;;;;;;6289757;22;20846;-45
2021/12/10 13:42:19;;;;;;;1.65;0.70;;;;;;;;;;6287877;22;20008;-43
2021/12/10 13:44:50;;;;;;;3.38;1.13;;;;;;;;;;6289005;22;20054;-43
2021/12/10 13:47:28;;;;;;;3.25;0.60;;;;;;;;;;6287129;22;20011;-43
2021/12/10 13:50:06;;;;;;;2.80;1.10;;;;;;;;;;6290150;22;20011;-43
2021/12/10 13:52:33;;;;;;;6.20;1.20;;;;;;;;;;6288780;22;20068;-43
2021/12/10 13:54:58;;;;;;;3.13;0.95;;;;;;;;;;6290600;22;20012;-43
2021/12/10 13:57:24;;;;;;;4.75;0.85;;;;;;;;;;6289230;22;20022;-43
2021/12/10 13:59:55;;;;;;;1.60;0.95;;;;;;;;;;6289137;22;20073;-43
2021/12/10 14:02:30;;;;;;;2.70;0.70;;;;;;;;;;6288663;22;20015;-43
2021/12/10 14:04:55;;;;;;;3.58;0.80;;;;;;;;;;6290335;22;20007;-45
2021/12/10 14:07:23;;;;;;;2.67;1.00;;;;;;;;;;6288919;22;20026;-44
2021/12/10 14:09:57;;;;;;;2.50;1.10;;;;;;;;;;6289479;22;20018;-43
2021/12/10 14:12:27;;;;;;;1.88;0.52;;;;;;;;;;6288490;22;20027;-44
2021/12/10 14:14:59;;;;;;;1.50;0.50;;;;;;;;;;6287628;22;20007;-44
2021/12/10 14:17:26;;;;;;;2.03;1.38;;;;;;;;;;6286595;22;20026;-44
2021/12/10 14:19:52;;;;;;;4.30;1.60;;;;;;;;;;6288695;22;20049;-43
2021/12/10 14:22:35;;;;;;;0.55;0.55;;;;;;;;;;6288385;22;20061;-44
2021/12/10 14:25:01;;;;;;;2.40;1.10;;;;;;;;;;6287437;22;20740;-43
2021/12/10 14:27:27;;;;;;;4.22;0.75;;;;;;;;;;6289056;22;20050;-43
2021/12/10 14:30:13;;;;;;;1.20;0.73;;;;;;;;;;6288303;22;21062;-43
2021/12/10 14:32:38;;;;;;;3.45;0.93;;;;;;;;;;6289540;22;20064;-44
2021/12/10 14:35:24;;;;;;;2.28;0.70;;;;;;;;;;6288075;22;20030;-43
2021/12/10 14:37:52;;;;;;;1.20;0.60;;;;;;;;;;6288797;22;20015;-44
2021/12/10 14:40:18;;;;;;;5.60;0.88;;;;;;;;;;6286807;22;20362;-42
2021/12/10 14:43:09;;;;;;;1.77;0.60;;;;;;;;;;6290140;22;20344;-43
2021/12/10 14:45:54;;;;;;;1.77;0.70;;;;;;;;;;6263741;22;20007;-44
2021/12/10 14:48:20;;;;;;;0.85;0.70;;;;;;;;;;6288909;22;20011;-43
2021/12/10 14:50:59;;;;;;;2.03;0.55;;;;;;;;;;6286716;22;20007;-43
2021/12/10 14:53:34;;;;;;;2.10;1.10;;;;;;;;;;6290126;22;20392;-44
2021/12/10 14:56:18;;;;;;;2.20;0.70;;;;;;;;;;6287208;22;20112;-46
2021/12/10 14:59:00;;;;;;;2.95;0.70;;;;;;;;;;6289083;22;20028;-43
2021/12/10 15:01:26;;;;;;;2.65;1.08;;;;;;;;;;6287235;22;20475;-43